Historyczne dane pomiarowe

Dodano dane terminowe – wersja testowa.

Dane z okresu 1951-2019

Wersja bazy: 1.34 [2019-03-16, lista zmian], aktualizacja planowana na 2019-04-15

Dane meteo z obszaru Polski uzyskane na podstawie danych udostępnionych przez Instytut Meteorologii i Gospodarki Wodnej – Państwowy Instytut Badawczy.

 

Wybierz Datę:    

       

TemperaturaWilgotnośćWiatrCiśnienieOpadyŚniegCzas trwania zjawisk
 Stacja t tx tn tng RH VA  wxwx mslp ppp RRR   cm mm wxwxwxwxwxwxwx
1972-06-13 19.3 26.1 15.8--- 4.7 1.7---- 0.0------------
1972-06-14 21.7 26.8 12.8--- 2.7 2.0---- 1.1------------
1972-06-15 20.7 26.1 13.8--- 4.3 2.3---- 4.9------------
1972-06-16 17.0 24.1 12.5--- 6.3 2.0---- 2.1------------
1972-06-17 16.6 20.1 11.4--- 2.7 2.7---- 0.0------------
1972-06-18 16.3 20.2 7.4--- 3.0 2.0---- 0.0------------
1972-06-19 18.3 23.1 10.2--- 0.7 1.0---- 0.0------------
1972-06-20 17.2 23.8 9.0--- 2.0 2.3---- 0.0------------
1972-06-21 16.1 20.9 5.4--- 1.3 3.0---- 0.0------------
1972-06-22 21.6 27.1 7.3--- 3.7 1.7---- 0.0------------
1972-06-23 20.1 27.1 11.9--- 5.3 2.0---- 25.2------------
1972-06-24 11.0 18.0 9.9--- 8.0 2.7---- 14.0------------
1972-06-25 8.6 13.2 8.0--- 8.0 5.3---- 21.3------------
1972-06-26 13.1 16.5 7.7--- 5.7 1.3---- 1.1------------
1972-06-27 12.6 16.4 6.9--- 6.0 1.3---- 18.5------------
1972-06-28 14.3 18.0 7.0--- 6.7 2.3---- 19.7------------
1972-06-29 19.7 24.6 12.5--- 6.7 5.3---- 1.0------------
1972-06-30 20.3 24.8 12.5--- 2.3 2.0---- 0.0------------
1972-07-01 14.1 20.5 12.3--- 8.0 4.0---- 4.8------------
1972-07-02 13.4 15.5 11.4--- 8.0 1.0---- 5.5------------
1972-07-03 15.8 20.9 12.5--- 7.0 4.0---- 0.0------------
1972-07-04 15.1 17.2 10.7--- 3.0 1.0---- 0.0------------
1972-07-05 16.9 21.6 9.1--- 7.3 2.3---- 0.2------------
1972-07-06 17.9 23.1 7.9--- 4.0 0.7---- 0.0------------
1972-07-07 18.6 25.5 8.4--- 4.0 2.7---- 7.3------------
1972-07-08 20.0 23.3 14.1--- 6.3 3.3---- 0.0------------
1972-07-09 20.8 26.2 15.5--- 3.7 0.7---- 0.0------------
1972-07-10 21.8 26.5 12.3--- 1.3 2.0---- 0.0------------
1972-07-11 14.3 22.1 11.6--- 8.0 6.0---- 1.0------------
1972-07-12 13.1 14.0 11.2--- 8.0 4.7---- 3.5------------
131.4 ms

 

Źródłem pochodzenia danych jest Instytut Meteorologii i Gospodarki Wodnej – Państwowy Instytut Badawczy. Dane Instytutu Meteorologii i Gospodarki Wodnej – Państwowego Instytutu Badawczego zostały przetworzone.

Dane źródłowe można odnaleźć na stronie https://dane.imgw.pl